sensor_id;sensor_type;location;lat;lon;timestamp;temperature;humidity
26947;DHT22;14501;52.282;10.560;2022-10-13T00:01:22;7.40;99.90
26947;DHT22;14501;52.282;10.560;2022-10-13T00:03:48;7.70;99.90
26947;DHT22;14501;52.282;10.560;2022-10-13T00:06:16;7.30;99.90
26947;DHT22;14501;52.282;10.560;2022-10-13T00:08:43;7.20;99.90
26947;DHT22;14501;52.282;10.560;2022-10-13T00:11:13;7.10;99.90
26947;DHT22;14501;52.282;10.560;2022-10-13T00:13:40;7.00;99.90
26947;DHT22;14501;52.282;10.560;2022-10-13T00:16:07;6.90;99.90
26947;DHT22;14501;52.282;10.560;2022-10-13T00:18:33;6.80;99.90
26947;DHT22;14501;52.282;10.560;2022-10-13T00:20:58;6.80;99.90
26947;DHT22;14501;52.282;10.560;2022-10-13T00:23:24;6.80;99.90
26947;DHT22;14501;52.282;10.560;2022-10-13T00:25:50;6.80;99.90
26947;DHT22;14501;52.282;10.560;2022-10-13T00:28:18;6.80;99.90
26947;DHT22;14501;52.282;10.560;2022-10-13T00:30:44;6.80;99.90
26947;DHT22;14501;52.282;10.560;2022-10-13T00:33:11;6.80;99.90
26947;DHT22;14501;52.282;10.560;2022-10-13T00:35:43;6.90;99.90
26947;DHT22;14501;52.282;10.560;2022-10-13T00:38:09;7.00;99.90
26947;DHT22;14501;52.282;10.560;2022-10-13T00:40:49;7.00;99.90
26947;DHT22;14501;52.282;10.560;2022-10-13T00:43:52;7.10;99.90
26947;DHT22;14501;52.282;10.560;2022-10-13T00:46:20;7.10;99.90
26947;DHT22;14501;52.282;10.560;2022-10-13T00:48:46;7.20;99.90
26947;DHT22;14501;52.282;10.560;2022-10-13T00:51:15;7.20;99.90
26947;DHT22;14501;52.282;10.560;2022-10-13T00:53:42;7.30;99.90
26947;DHT22;14501;52.282;10.560;2022-10-13T00:56:09;7.30;99.90
26947;DHT22;14501;52.282;10.560;2022-10-13T00:58:36;7.30;99.90
26947;DHT22;14501;52.282;10.560;2022-10-13T01:01:04;7.30;99.90
26947;DHT22;14501;52.282;10.560;2022-10-13T01:03:30;7.30;99.90
26947;DHT22;14501;52.282;10.560;2022-10-13T01:05:59;7.20;99.90
26947;DHT22;14501;52.282;10.560;2022-10-13T01:08:27;7.20;99.90
26947;DHT22;14501;52.282;10.560;2022-10-13T01:11:04;7.10;99.90
26947;DHT22;14501;52.282;10.560;2022-10-13T01:16:45;6.90;99.90
26947;DHT22;14501;52.282;10.560;2022-10-13T01:31:17;6.70;99.90
26947;DHT22;14501;52.282;10.560;2022-10-13T01:33:57;6.70;99.90
26947;DHT22;14501;52.282;10.560;2022-10-13T01:36:56;6.70;99.90
26947;DHT22;14501;52.282;10.560;2022-10-13T01:39:40;6.80;99.90
26947;DHT22;14501;52.282;10.560;2022-10-13T01:42:18;6.80;99.90
26947;DHT22;14501;52.282;10.560;2022-10-13T01:44:49;6.80;99.90
26947;DHT22;14501;52.282;10.560;2022-10-13T01:47:16;6.80;99.90
26947;DHT22;14501;52.282;10.560;2022-10-13T01:49:43;6.80;99.90
26947;DHT22;14501;52.282;10.560;2022-10-13T01:52:13;6.90;99.90
26947;DHT22;14501;52.282;10.560;2022-10-13T01:54:39;6.90;99.90
26947;DHT22;14501;52.282;10.560;2022-10-13T01:57:29;7.00;99.90
26947;DHT22;14501;52.282;10.560;2022-10-13T01:59:56;7.00;99.90
26947;DHT22;14501;52.282;10.560;2022-10-13T02:02:29;7.00;99.90
26947;DHT22;14501;52.282;10.560;2022-10-13T02:08:00;7.20;99.90
26947;DHT22;14501;52.282;10.560;2022-10-13T02:10:36;7.20;99.90
26947;DHT22;14501;52.282;10.560;2022-10-13T02:13:05;7.30;99.90
26947;DHT22;14501;52.282;10.560;2022-10-13T02:15:48;7.40;99.90
26947;DHT22;14501;52.282;10.560;2022-10-13T02:18:20;7.40;99.90
26947;DHT22;14501;52.282;10.560;2022-10-13T02:20:47;7.50;99.90
26947;DHT22;14501;52.282;10.560;2022-10-13T02:23:16;7.60;99.90
26947;DHT22;14501;52.282;10.560;2022-10-13T02:25:42;7.60;99.90
26947;DHT22;14501;52.282;10.560;2022-10-13T02:28:09;7.70;99.90
26947;DHT22;14501;52.282;10.560;2022-10-13T02:30:38;7.80;99.90
26947;DHT22;14501;52.282;10.560;2022-10-13T02:33:05;7.80;99.90
26947;DHT22;14501;52.282;10.560;2022-10-13T02:35:32;7.90;99.90
26947;DHT22;14501;52.282;10.560;2022-10-13T02:37:58;7.90;99.90
26947;DHT22;14501;52.282;10.560;2022-10-13T02:40:24;8.00;99.90
26947;DHT22;14501;52.282;10.560;2022-10-13T02:42:50;8.00;99.90
26947;DHT22;14501;52.282;10.560;2022-10-13T02:45:15;8.00;99.90
26947;DHT22;14501;52.282;10.560;2022-10-13T02:47:41;8.00;99.90
26947;DHT22;14501;52.282;10.560;2022-10-13T02:50:07;8.00;99.90
26947;DHT22;14501;52.282;10.560;2022-10-13T02:52:33;7.90;99.90
26947;DHT22;14501;52.282;10.560;2022-10-13T02:54:59;7.90;99.90
26947;DHT22;14501;52.282;10.560;2022-10-13T02:57:24;8.00;99.90
26947;DHT22;14501;52.282;10.560;2022-10-13T02:59:50;8.00;99.90
26947;DHT22;14501;52.282;10.560;2022-10-13T03:02:16;7.90;99.90
26947;DHT22;14501;52.282;10.560;2022-10-13T03:04:42;8.00;99.90
26947;DHT22;14501;52.282;10.560;2022-10-13T03:07:07;7.90;99.90
26947;DHT22;14501;52.282;10.560;2022-10-13T03:09:33;8.00;99.90
26947;DHT22;14501;52.282;10.560;2022-10-13T03:11:59;7.90;99.90
26947;DHT22;14501;52.282;10.560;2022-10-13T03:14:24;8.00;99.90
26947;DHT22;14501;52.282;10.560;2022-10-13T03:16:50;8.00;99.90
26947;DHT22;14501;52.282;10.560;2022-10-13T03:19:15;8.00;99.90
26947;DHT22;14501;52.282;10.560;2022-10-13T03:21:41;8.00;99.90
26947;DHT22;14501;52.282;10.560;2022-10-13T03:24:07;8.00;99.90
26947;DHT22;14501;52.282;10.560;2022-10-13T03:26:33;8.00;99.90
26947;DHT22;14501;52.282;10.560;2022-10-13T03:28:59;8.00;99.90
26947;DHT22;14501;52.282;10.560;2022-10-13T03:31:25;8.00;99.90
26947;DHT22;14501;52.282;10.560;2022-10-13T03:33:50;8.10;99.90
26947;DHT22;14501;52.282;10.560;2022-10-13T03:36:16;8.10;99.90
26947;DHT22;14501;52.282;10.560;2022-10-13T03:38:42;8.10;99.90
26947;DHT22;14501;52.282;10.560;2022-10-13T03:41:10;8.20;99.90
26947;DHT22;14501;52.282;10.560;2022-10-13T03:43:36;8.20;99.90
26947;DHT22;14501;52.282;10.560;2022-10-13T03:46:04;8.30;99.90
26947;DHT22;14501;52.282;10.560;2022-10-13T03:48:30;8.30;99.90
26947;DHT22;14501;52.282;10.560;2022-10-13T03:50:56;8.30;99.90
26947;DHT22;14501;52.282;10.560;2022-10-13T03:53:22;8.30;99.90
26947;DHT22;14501;52.282;10.560;2022-10-13T03:55:53;8.30;99.90
26947;DHT22;14501;52.282;10.560;2022-10-13T03:58:20;8.20;99.90
26947;DHT22;14501;52.282;10.560;2022-10-13T04:00:46;8.20;99.90
26947;DHT22;14501;52.282;10.560;2022-10-13T04:03:12;8.10;99.90
26947;DHT22;14501;52.282;10.560;2022-10-13T04:05:38;8.10;99.90
26947;DHT22;14501;52.282;10.560;2022-10-13T04:08:04;8.10;99.90
26947;DHT22;14501;52.282;10.560;2022-10-13T04:10:30;8.10;99.90
26947;DHT22;14501;52.282;10.560;2022-10-13T04:12:55;8.10;99.90
26947;DHT22;14501;52.282;10.560;2022-10-13T04:15:21;8.20;99.90
26947;DHT22;14501;52.282;10.560;2022-10-13T04:17:46;8.20;99.90
26947;DHT22;14501;52.282;10.560;2022-10-13T04:20:12;8.20;99.90
26947;DHT22;14501;52.282;10.560;2022-10-13T04:22:38;8.20;99.90
26947;DHT22;14501;52.282;10.560;2022-10-13T04:25:04;8.30;99.90
26947;DHT22;14501;52.282;10.560;2022-10-13T04:27:30;8.30;99.90
26947;DHT22;14501;52.282;10.560;2022-10-13T04:29:56;8.30;99.90
26947;DHT22;14501;52.282;10.560;2022-10-13T04:32:22;8.30;99.90
26947;DHT22;14501;52.282;10.560;2022-10-13T04:34:48;8.30;99.90
26947;DHT22;14501;52.282;10.560;2022-10-13T04:37:13;8.30;99.90
26947;DHT22;14501;52.282;10.560;2022-10-13T04:39:39;8.30;99.90
26947;DHT22;14501;52.282;10.560;2022-10-13T04:42:04;8.30;99.90
26947;DHT22;14501;52.282;10.560;2022-10-13T04:44:30;8.40;99.90
26947;DHT22;14501;52.282;10.560;2022-10-13T04:46:56;8.40;99.90
26947;DHT22;14501;52.282;10.560;2022-10-13T04:49:23;8.40;99.90
26947;DHT22;14501;52.282;10.560;2022-10-13T04:51:48;8.40;99.90
26947;DHT22;14501;52.282;10.560;2022-10-13T04:54:14;8.40;99.90
26947;DHT22;14501;52.282;10.560;2022-10-13T04:56:40;9.10;99.90
26947;DHT22;14501;52.282;10.560;2022-10-13T04:59:05;8.40;99.90
26947;DHT22;14501;52.282;10.560;2022-10-13T05:01:31;8.40;99.90
26947;DHT22;14501;52.282;10.560;2022-10-13T05:03:59;8.40;99.90
26947;DHT22;14501;52.282;10.560;2022-10-13T05:06:31;8.40;99.90
26947;DHT22;14501;52.282;10.560;2022-10-13T05:08:57;8.40;99.90
26947;DHT22;14501;52.282;10.560;2022-10-13T05:11:23;8.40;99.90
26947;DHT22;14501;52.282;10.560;2022-10-13T05:13:51;8.40;99.90
26947;DHT22;14501;52.282;10.560;2022-10-13T05:16:18;8.40;99.90
26947;DHT22;14501;52.282;10.560;2022-10-13T05:18:44;8.40;99.90
26947;DHT22;14501;52.282;10.560;2022-10-13T05:21:25;8.40;99.90
26947;DHT22;14501;52.282;10.560;2022-10-13T05:23:52;8.40;99.90
26947;DHT22;14501;52.282;10.560;2022-10-13T05:26:26;8.40;99.90
26947;DHT22;14501;52.282;10.560;2022-10-13T05:28:57;8.30;99.90
26947;DHT22;14501;52.282;10.560;2022-10-13T05:31:24;8.30;99.90
26947;DHT22;14501;52.282;10.560;2022-10-13T05:33:50;8.30;99.90
26947;DHT22;14501;52.282;10.560;2022-10-13T05:36:18;8.20;99.90
26947;DHT22;14501;52.282;10.560;2022-10-13T05:41:12;8.20;99.90
26947;DHT22;14501;52.282;10.560;2022-10-13T05:43:39;8.20;99.90
26947;DHT22;14501;52.282;10.560;2022-10-13T05:46:05;8.20;99.90
26947;DHT22;14501;52.282;10.560;2022-10-13T05:48:31;8.20;99.90
26947;DHT22;14501;52.282;10.560;2022-10-13T05:50:59;8.20;99.90
26947;DHT22;14501;52.282;10.560;2022-10-13T05:53:29;9.30;99.90
26947;DHT22;14501;52.282;10.560;2022-10-13T05:55:58;9.80;99.90
26947;DHT22;14501;52.282;10.560;2022-10-13T05:58:32;8.20;99.90
26947;DHT22;14501;52.282;10.560;2022-10-13T06:00:58;8.20;99.90
26947;DHT22;14501;52.282;10.560;2022-10-13T06:03:25;9.30;99.90
26947;DHT22;14501;52.282;10.560;2022-10-13T06:05:52;10.40;99.90
26947;DHT22;14501;52.282;10.560;2022-10-13T06:08:17;8.30;99.90
26947;DHT22;14501;52.282;10.560;2022-10-13T06:10:43;8.30;99.90
26947;DHT22;14501;52.282;10.560;2022-10-13T06:15:35;8.30;99.90
26947;DHT22;14501;52.282;10.560;2022-10-13T06:18:01;8.60;99.90
26947;DHT22;14501;52.282;10.560;2022-10-13T06:20:31;8.70;99.90
26947;DHT22;14501;52.282;10.560;2022-10-13T06:22:56;8.80;99.90
26947;DHT22;14501;52.282;10.560;2022-10-13T06:25:22;10.10;99.90
26947;DHT22;14501;52.282;10.560;2022-10-13T06:27:47;8.90;99.90
26947;DHT22;14501;52.282;10.560;2022-10-13T06:30:13;8.80;99.90
26947;DHT22;14501;52.282;10.560;2022-10-13T06:32:39;9.00;99.90
26947;DHT22;14501;52.282;10.560;2022-10-13T06:35:05;9.10;99.90
26947;DHT22;14501;52.282;10.560;2022-10-13T06:37:31;9.10;99.90
26947;DHT22;14501;52.282;10.560;2022-10-13T06:39:56;9.20;99.90
26947;DHT22;14501;52.282;10.560;2022-10-13T06:42:22;9.20;99.90
26947;DHT22;14501;52.282;10.560;2022-10-13T06:44:47;9.70;99.90
26947;DHT22;14501;52.282;10.560;2022-10-13T06:47:13;10.40;99.90
26947;DHT22;14501;52.282;10.560;2022-10-13T06:49:39;9.60;99.90
26947;DHT22;14501;52.282;10.560;2022-10-13T06:52:04;9.70;99.90
26947;DHT22;14501;52.282;10.560;2022-10-13T06:54:30;10.00;99.90
26947;DHT22;14501;52.282;10.560;2022-10-13T06:56:55;10.20;99.90
26947;DHT22;14501;52.282;10.560;2022-10-13T06:59:21;10.60;99.90
26947;DHT22;14501;52.282;10.560;2022-10-13T07:01:47;10.70;99.90
26947;DHT22;14501;52.282;10.560;2022-10-13T07:04:13;10.90;99.90
26947;DHT22;14501;52.282;10.560;2022-10-13T07:06:39;12.60;99.90
26947;DHT22;14501;52.282;10.560;2022-10-13T07:09:06;11.30;99.90
26947;DHT22;14501;52.282;10.560;2022-10-13T07:11:32;11.40;99.90
26947;DHT22;14501;52.282;10.560;2022-10-13T07:13:57;11.40;99.90
26947;DHT22;14501;52.282;10.560;2022-10-13T07:16:23;12.00;99.90
26947;DHT22;14501;52.282;10.560;2022-10-13T07:18:48;11.20;99.90
26947;DHT22;14501;52.282;10.560;2022-10-13T07:21:15;11.20;99.90
26947;DHT22;14501;52.282;10.560;2022-10-13T07:23:40;11.10;99.90
26947;DHT22;14501;52.282;10.560;2022-10-13T07:26:12;11.20;99.90
26947;DHT22;14501;52.282;10.560;2022-10-13T07:28:38;10.90;99.90
26947;DHT22;14501;52.282;10.560;2022-10-13T07:31:12;10.90;99.90
26947;DHT22;14501;52.282;10.560;2022-10-13T07:33:39;10.90;99.90
26947;DHT22;14501;52.282;10.560;2022-10-13T07:36:05;10.90;99.90
26947;DHT22;14501;52.282;10.560;2022-10-13T07:38:31;11.10;99.90
26947;DHT22;14501;52.282;10.560;2022-10-13T07:40:59;11.20;99.90
26947;DHT22;14501;52.282;10.560;2022-10-13T07:43:26;11.40;99.90
26947;DHT22;14501;52.282;10.560;2022-10-13T07:45:52;11.80;99.90
26947;DHT22;14501;52.282;10.560;2022-10-13T07:48:17;12.10;99.90
26947;DHT22;14501;52.282;10.560;2022-10-13T07:50:43;12.20;99.90
26947;DHT22;14501;52.282;10.560;2022-10-13T07:53:09;12.60;99.90
26947;DHT22;14501;52.282;10.560;2022-10-13T07:55:35;12.80;99.90
26947;DHT22;14501;52.282;10.560;2022-10-13T07:58:02;13.20;99.90
26947;DHT22;14501;52.282;10.560;2022-10-13T08:00:28;13.30;99.90
26947;DHT22;14501;52.282;10.560;2022-10-13T08:02:53;13.50;99.90
26947;DHT22;14501;52.282;10.560;2022-10-13T08:05:19;13.50;99.90
26947;DHT22;14501;52.282;10.560;2022-10-13T08:07:45;13.60;99.90
26947;DHT22;14501;52.282;10.560;2022-10-13T08:10:10;13.70;99.90
26947;DHT22;14501;52.282;10.560;2022-10-13T08:12:36;13.90;99.90
26947;DHT22;14501;52.282;10.560;2022-10-13T08:15:03;14.40;99.90
26947;DHT22;14501;52.282;10.560;2022-10-13T08:17:28;14.20;99.90
26947;DHT22;14501;52.282;10.560;2022-10-13T08:19:54;14.40;99.90
26947;DHT22;14501;52.282;10.560;2022-10-13T08:22:20;14.60;99.90
26947;DHT22;14501;52.282;10.560;2022-10-13T08:24:46;14.70;99.90
26947;DHT22;14501;52.282;10.560;2022-10-13T08:27:18;15.00;99.90
26947;DHT22;14501;52.282;10.560;2022-10-13T08:29:44;15.20;99.90
26947;DHT22;14501;52.282;10.560;2022-10-13T08:32:10;15.30;99.90
26947;DHT22;14501;52.282;10.560;2022-10-13T08:34:35;15.50;99.90
26947;DHT22;14501;52.282;10.560;2022-10-13T08:37:01;15.70;99.90
26947;DHT22;14501;52.282;10.560;2022-10-13T08:39:27;15.90;99.90
26947;DHT22;14501;52.282;10.560;2022-10-13T08:41:54;15.90;99.90
26947;DHT22;14501;52.282;10.560;2022-10-13T08:44:40;16.10;99.90
26947;DHT22;14501;52.282;10.560;2022-10-13T08:49:55;17.90;99.90
26947;DHT22;14501;52.282;10.560;2022-10-13T08:52:24;18.80;99.90
26947;DHT22;14501;52.282;10.560;2022-10-13T08:54:52;19.40;99.90
26947;DHT22;14501;52.282;10.560;2022-10-13T08:57:19;19.90;99.90
26947;DHT22;14501;52.282;10.560;2022-10-13T08:59:45;20.90;99.90
26947;DHT22;14501;52.282;10.560;2022-10-13T09:02:14;21.50;99.90
26947;DHT22;14501;52.282;10.560;2022-10-13T09:04:47;22.10;99.90
26947;DHT22;14501;52.282;10.560;2022-10-13T09:07:19;23.20;99.90
26947;DHT22;14501;52.282;10.560;2022-10-13T09:09:49;23.60;99.90
26947;DHT22;14501;52.282;10.560;2022-10-13T09:12:16;24.00;99.90
26947;DHT22;14501;52.282;10.560;2022-10-13T09:14:56;24.00;99.90
26947;DHT22;14501;52.282;10.560;2022-10-13T09:17:24;23.30;99.90
26947;DHT22;14501;52.282;10.560;2022-10-13T09:25:17;24.60;99.90
26947;DHT22;14501;52.282;10.560;2022-10-13T09:27:55;24.50;99.90
26947;DHT22;14501;52.282;10.560;2022-10-13T09:35:43;23.20;99.90
26947;DHT22;14501;52.282;10.560;2022-10-13T09:38:21;22.50;99.90
26947;DHT22;14501;52.282;10.560;2022-10-13T09:46:20;22.40;99.90
26947;DHT22;14501;52.282;10.560;2022-10-13T09:48:50;22.00;99.90
26947;DHT22;14501;52.282;10.560;2022-10-13T09:51:46;21.40;99.90
26947;DHT22;14501;52.282;10.560;2022-10-13T09:59:48;19.70;99.90
26947;DHT22;14501;52.282;10.560;2022-10-13T10:05:22;19.10;99.90
26947;DHT22;14501;52.282;10.560;2022-10-13T10:07:44;19.10;99.90
26947;DHT22;14501;52.282;10.560;2022-10-13T10:13:12;18.70;99.90
26947;DHT22;14501;52.282;10.560;2022-10-13T10:18:52;18.50;99.90
26947;DHT22;14501;52.282;10.560;2022-10-13T10:21:43;18.50;99.90
26947;DHT22;14501;52.282;10.560;2022-10-13T10:26:59;18.90;99.90
26947;DHT22;14501;52.282;10.560;2022-10-13T10:29:47;19.60;99.90
26947;DHT22;14501;52.282;10.560;2022-10-13T10:41:37;21.50;99.90
26947;DHT22;14501;52.282;10.560;2022-10-13T10:43:43;21.60;99.90
26947;DHT22;14501;52.282;10.560;2022-10-13T10:46:22;21.80;99.90
26947;DHT22;14501;52.282;10.560;2022-10-13T10:48:51;21.80;99.90
26947;DHT22;14501;52.282;10.560;2022-10-13T10:51:19;21.80;99.90
26947;DHT22;14501;52.282;10.560;2022-10-13T11:04:47;22.30;99.90
26947;DHT22;14501;52.282;10.560;2022-10-13T11:15:12;21.50;99.90
26947;DHT22;14501;52.282;10.560;2022-10-13T11:17:39;21.50;99.90
26947;DHT22;14501;52.282;10.560;2022-10-13T11:25:45;21.10;99.90
26947;DHT22;14501;52.282;10.560;2022-10-13T11:44:58;20.60;99.90
26947;DHT22;14501;52.282;10.560;2022-10-13T11:53:26;20.20;99.90
26947;DHT22;14501;52.282;10.560;2022-10-13T11:55:58;20.00;99.90
26947;DHT22;14501;52.282;10.560;2022-10-13T11:58:27;19.80;99.90
26947;DHT22;14501;52.282;10.560;2022-10-13T12:03:30;19.70;99.90
26947;DHT22;14501;52.282;10.560;2022-10-13T12:06:04;19.50;99.90
26947;DHT22;14501;52.282;10.560;2022-10-13T12:08:35;19.50;99.90
26947;DHT22;14501;52.282;10.560;2022-10-13T12:11:01;19.50;99.90
26947;DHT22;14501;52.282;10.560;2022-10-13T12:13:32;19.70;99.90
26947;DHT22;14501;52.282;10.560;2022-10-13T12:16:03;19.60;99.90
26947;DHT22;14501;52.282;10.560;2022-10-13T12:18:33;19.70;99.90
26947;DHT22;14501;52.282;10.560;2022-10-13T12:21:07;19.70;99.90
26947;DHT22;14501;52.282;10.560;2022-10-13T12:23:33;19.80;99.90
26947;DHT22;14501;52.282;10.560;2022-10-13T12:25:59;20.00;99.90
26947;DHT22;14501;52.282;10.560;2022-10-13T12:34:01;20.10;99.90
26947;DHT22;14501;52.282;10.560;2022-10-13T12:36:33;20.00;99.90
26947;DHT22;14501;52.282;10.560;2022-10-13T12:39:10;20.00;99.90
26947;DHT22;14501;52.282;10.560;2022-10-13T12:41:42;20.00;99.90
26947;DHT22;14501;52.282;10.560;2022-10-13T12:44:22;19.90;99.90
26947;DHT22;14501;52.282;10.560;2022-10-13T12:46:50;19.80;99.90
26947;DHT22;14501;52.282;10.560;2022-10-13T12:51:54;19.90;99.90
26947;DHT22;14501;52.282;10.560;2022-10-13T12:54:26;19.90;99.90
26947;DHT22;14501;52.282;10.560;2022-10-13T12:56:56;20.10;99.90
26947;DHT22;14501;52.282;10.560;2022-10-13T12:59:24;20.10;99.90
26947;DHT22;14501;52.282;10.560;2022-10-13T13:01:59;19.90;99.90
26947;DHT22;14501;52.282;10.560;2022-10-13T13:04:37;19.80;99.90
26947;DHT22;14501;52.282;10.560;2022-10-13T13:07:19;19.70;99.90
26947;DHT22;14501;52.282;10.560;2022-10-13T13:12:35;20.10;99.90
26947;DHT22;14501;52.282;10.560;2022-10-13T13:15:36;20.00;99.90
26947;DHT22;14501;52.282;10.560;2022-10-13T13:18:35;19.90;99.90
26947;DHT22;14501;52.282;10.560;2022-10-13T13:21:05;20.50;99.90
26947;DHT22;14501;52.282;10.560;2022-10-13T13:23:31;19.80;99.90
26947;DHT22;14501;52.282;10.560;2022-10-13T13:28:34;19.40;99.90
26947;DHT22;14501;52.282;10.560;2022-10-13T13:31:00;19.30;99.90
26947;DHT22;14501;52.282;10.560;2022-10-13T13:33:26;19.30;99.90
26947;DHT22;14501;52.282;10.560;2022-10-13T13:35:52;19.30;99.90
26947;DHT22;14501;52.282;10.560;2022-10-13T13:38:18;19.20;99.90
26947;DHT22;14501;52.282;10.560;2022-10-13T13:40:43;19.20;99.90
26947;DHT22;14501;52.282;10.560;2022-10-13T13:43:09;19.20;99.90
26947;DHT22;14501;52.282;10.560;2022-10-13T13:45:35;19.10;99.90
26947;DHT22;14501;52.282;10.560;2022-10-13T13:48:01;19.00;99.90
26947;DHT22;14501;52.282;10.560;2022-10-13T13:50:34;19.00;99.90
26947;DHT22;14501;52.282;10.560;2022-10-13T13:53:00;19.00;99.90
26947;DHT22;14501;52.282;10.560;2022-10-13T13:55:26;19.00;99.90
26947;DHT22;14501;52.282;10.560;2022-10-13T13:57:54;19.00;99.90
26947;DHT22;14501;52.282;10.560;2022-10-13T14:00:21;19.00;99.90
26947;DHT22;14501;52.282;10.560;2022-10-13T14:02:48;18.90;99.90
26947;DHT22;14501;52.282;10.560;2022-10-13T14:05:14;18.90;99.90
26947;DHT22;14501;52.282;10.560;2022-10-13T14:07:40;18.80;99.90
26947;DHT22;14501;52.282;10.560;2022-10-13T14:10:07;18.80;99.90
26947;DHT22;14501;52.282;10.560;2022-10-13T14:12:33;18.70;99.90
26947;DHT22;14501;52.282;10.560;2022-10-13T14:14:59;18.60;99.90
26947;DHT22;14501;52.282;10.560;2022-10-13T14:17:25;18.50;99.90
26947;DHT22;14501;52.282;10.560;2022-10-13T14:19:51;18.50;99.90
26947;DHT22;14501;52.282;10.560;2022-10-13T14:22:17;18.40;99.90
26947;DHT22;14501;52.282;10.560;2022-10-13T14:24:42;18.40;99.90
26947;DHT22;14501;52.282;10.560;2022-10-13T14:27:08;18.30;99.90
26947;DHT22;14501;52.282;10.560;2022-10-13T14:29:34;18.20;99.90
26947;DHT22;14501;52.282;10.560;2022-10-13T14:32:00;18.20;99.90
26947;DHT22;14501;52.282;10.560;2022-10-13T14:34:26;18.20;99.90
26947;DHT22;14501;52.282;10.560;2022-10-13T14:36:51;18.30;99.90
26947;DHT22;14501;52.282;10.560;2022-10-13T14:39:17;18.30;99.90
26947;DHT22;14501;52.282;10.560;2022-10-13T14:41:43;18.40;99.90
26947;DHT22;14501;52.282;10.560;2022-10-13T14:44:10;18.40;99.90
26947;DHT22;14501;52.282;10.560;2022-10-13T14:46:36;18.40;99.90
26947;DHT22;14501;52.282;10.560;2022-10-13T14:49:02;18.30;99.90
26947;DHT22;14501;52.282;10.560;2022-10-13T14:51:27;18.30;99.90
26947;DHT22;14501;52.282;10.560;2022-10-13T14:53:53;18.20;99.90
26947;DHT22;14501;52.282;10.560;2022-10-13T14:56:24;18.20;99.90
26947;DHT22;14501;52.282;10.560;2022-10-13T14:58:52;18.00;99.90
26947;DHT22;14501;52.282;10.560;2022-10-13T15:01:19;17.80;99.90
26947;DHT22;14501;52.282;10.560;2022-10-13T15:03:45;17.70;99.90
26947;DHT22;14501;52.282;10.560;2022-10-13T15:06:16;17.50;99.90
26947;DHT22;14501;52.282;10.560;2022-10-13T15:08:43;17.30;99.90
26947;DHT22;14501;52.282;10.560;2022-10-13T15:11:09;17.30;99.90
26947;DHT22;14501;52.282;10.560;2022-10-13T15:13:35;17.20;99.90
26947;DHT22;14501;52.282;10.560;2022-10-13T15:16:01;17.10;99.90
26947;DHT22;14501;52.282;10.560;2022-10-13T15:18:29;16.90;99.90
26947;DHT22;14501;52.282;10.560;2022-10-13T15:20:55;16.80;99.90
26947;DHT22;14501;52.282;10.560;2022-10-13T15:23:20;16.80;99.90
26947;DHT22;14501;52.282;10.560;2022-10-13T15:25:58;16.70;99.90
26947;DHT22;14501;52.282;10.560;2022-10-13T15:28:29;16.70;99.90
26947;DHT22;14501;52.282;10.560;2022-10-13T15:30:55;16.70;99.90
26947;DHT22;14501;52.282;10.560;2022-10-13T15:33:21;16.70;99.90
26947;DHT22;14501;52.282;10.560;2022-10-13T15:35:51;16.70;99.90
26947;DHT22;14501;52.282;10.560;2022-10-13T15:38:18;16.60;99.90
26947;DHT22;14501;52.282;10.560;2022-10-13T15:40:45;16.60;99.90
26947;DHT22;14501;52.282;10.560;2022-10-13T15:43:11;16.50;99.90
26947;DHT22;14501;52.282;10.560;2022-10-13T15:45:36;16.40;99.90
26947;DHT22;14501;52.282;10.560;2022-10-13T15:48:04;16.30;99.90
26947;DHT22;14501;52.282;10.560;2022-10-13T15:50:30;16.30;99.90
26947;DHT22;14501;52.282;10.560;2022-10-13T15:52:56;16.20;99.90
26947;DHT22;14501;52.282;10.560;2022-10-13T15:55:21;16.10;99.90
26947;DHT22;14501;52.282;10.560;2022-10-13T15:57:47;16.00;99.90
26947;DHT22;14501;52.282;10.560;2022-10-13T16:00:13;15.80;99.90
26947;DHT22;14501;52.282;10.560;2022-10-13T16:02:40;15.80;99.90
26947;DHT22;14501;52.282;10.560;2022-10-13T16:05:08;15.70;99.90
26947;DHT22;14501;52.282;10.560;2022-10-13T16:07:34;15.50;99.90
26947;DHT22;14501;52.282;10.560;2022-10-13T16:10:01;15.40;99.90
26947;DHT22;14501;52.282;10.560;2022-10-13T16:12:27;15.40;99.90
26947;DHT22;14501;52.282;10.560;2022-10-13T16:14:53;15.30;99.90
26947;DHT22;14501;52.282;10.560;2022-10-13T16:17:19;15.20;99.90
26947;DHT22;14501;52.282;10.560;2022-10-13T16:19:45;15.00;99.90
26947;DHT22;14501;52.282;10.560;2022-10-13T16:22:10;15.10;99.90
26947;DHT22;14501;52.282;10.560;2022-10-13T16:24:36;15.00;99.90
26947;DHT22;14501;52.282;10.560;2022-10-13T16:27:01;14.90;99.90
26947;DHT22;14501;52.282;10.560;2022-10-13T16:29:27;14.80;99.90
26947;DHT22;14501;52.282;10.560;2022-10-13T16:31:53;14.70;99.90
26947;DHT22;14501;52.282;10.560;2022-10-13T16:34:20;14.80;99.90
26947;DHT22;14501;52.282;10.560;2022-10-13T16:36:47;14.70;99.90
26947;DHT22;14501;52.282;10.560;2022-10-13T16:39:13;14.60;99.90
26947;DHT22;14501;52.282;10.560;2022-10-13T16:41:39;14.60;99.90
26947;DHT22;14501;52.282;10.560;2022-10-13T16:44:04;14.50;99.90
26947;DHT22;14501;52.282;10.560;2022-10-13T16:46:30;14.40;99.90
26947;DHT22;14501;52.282;10.560;2022-10-13T16:48:58;14.30;99.90
26947;DHT22;14501;52.282;10.560;2022-10-13T16:51:24;14.30;99.90
26947;DHT22;14501;52.282;10.560;2022-10-13T16:53:53;14.20;99.90
26947;DHT22;14501;52.282;10.560;2022-10-13T16:56:20;14.20;99.90
26947;DHT22;14501;52.282;10.560;2022-10-13T16:58:50;14.10;99.90
26947;DHT22;14501;52.282;10.560;2022-10-13T17:01:17;14.00;99.90
26947;DHT22;14501;52.282;10.560;2022-10-13T17:03:44;14.00;99.90
26947;DHT22;14501;52.282;10.560;2022-10-13T17:06:11;14.00;99.90
26947;DHT22;14501;52.282;10.560;2022-10-13T17:08:37;13.90;99.90
26947;DHT22;14501;52.282;10.560;2022-10-13T17:11:04;13.90;99.90
26947;DHT22;14501;52.282;10.560;2022-10-13T17:13:30;13.90;99.90
26947;DHT22;14501;52.282;10.560;2022-10-13T17:15:56;13.90;99.90
26947;DHT22;14501;52.282;10.560;2022-10-13T17:18:23;13.90;99.90
26947;DHT22;14501;52.282;10.560;2022-10-13T17:20:57;13.90;99.90
26947;DHT22;14501;52.282;10.560;2022-10-13T17:23:23;13.90;99.90
26947;DHT22;14501;52.282;10.560;2022-10-13T17:25:50;13.90;99.90
26947;DHT22;14501;52.282;10.560;2022-10-13T17:28:17;13.80;99.90
26947;DHT22;14501;52.282;10.560;2022-10-13T17:30:43;13.80;99.90
26947;DHT22;14501;52.282;10.560;2022-10-13T17:33:09;13.80;99.90
26947;DHT22;14501;52.282;10.560;2022-10-13T17:35:38;13.80;99.90
26947;DHT22;14501;52.282;10.560;2022-10-13T17:40:35;13.80;99.90
26947;DHT22;14501;52.282;10.560;2022-10-13T17:45:28;13.80;99.90